sensor_id;sensor_type;location;lat;lon;timestamp;temperature;humidity
38090;DHT22;23904;52.322;10.232;2023-07-24T00:01:08;19.70;99.90
38090;DHT22;23904;52.322;10.232;2023-07-24T00:03:34;19.70;99.90
38090;DHT22;23904;52.322;10.232;2023-07-24T00:06:00;19.70;99.90
38090;DHT22;23904;52.322;10.232;2023-07-24T00:08:25;19.70;99.90
38090;DHT22;23904;52.322;10.232;2023-07-24T00:10:51;19.70;99.90
38090;DHT22;23904;52.322;10.232;2023-07-24T00:13:17;19.70;99.90
38090;DHT22;23904;52.322;10.232;2023-07-24T00:15:42;19.60;99.90
38090;DHT22;23904;52.322;10.232;2023-07-24T00:18:08;19.60;99.90
38090;DHT22;23904;52.322;10.232;2023-07-24T00:20:33;19.60;99.90
38090;DHT22;23904;52.322;10.232;2023-07-24T00:22:59;19.60;99.90
38090;DHT22;23904;52.322;10.232;2023-07-24T00:25:25;19.60;99.90
38090;DHT22;23904;52.322;10.232;2023-07-24T00:27:50;19.60;99.90
38090;DHT22;23904;52.322;10.232;2023-07-24T00:30:16;19.60;99.90
38090;DHT22;23904;52.322;10.232;2023-07-24T00:32:41;19.60;99.90
38090;DHT22;23904;52.322;10.232;2023-07-24T00:35:07;19.60;99.90
38090;DHT22;23904;52.322;10.232;2023-07-24T00:37:33;19.60;99.90
38090;DHT22;23904;52.322;10.232;2023-07-24T00:39:59;19.50;99.90
38090;DHT22;23904;52.322;10.232;2023-07-24T00:42:25;19.50;99.90
38090;DHT22;23904;52.322;10.232;2023-07-24T00:44:50;19.50;99.90
38090;DHT22;23904;52.322;10.232;2023-07-24T00:47:16;19.50;99.90
38090;DHT22;23904;52.322;10.232;2023-07-24T00:49:43;19.50;99.90
38090;DHT22;23904;52.322;10.232;2023-07-24T00:52:10;19.40;99.90
38090;DHT22;23904;52.322;10.232;2023-07-24T00:54:36;19.40;99.90
38090;DHT22;23904;52.322;10.232;2023-07-24T00:57:03;19.40;99.90
38090;DHT22;23904;52.322;10.232;2023-07-24T00:59:30;19.40;99.90
38090;DHT22;23904;52.322;10.232;2023-07-24T01:01:56;19.50;99.90
38090;DHT22;23904;52.322;10.232;2023-07-24T01:04:22;19.50;99.90
38090;DHT22;23904;52.322;10.232;2023-07-24T01:06:49;19.40;99.90
38090;DHT22;23904;52.322;10.232;2023-07-24T01:09:15;19.40;99.90
38090;DHT22;23904;52.322;10.232;2023-07-24T01:11:50;19.30;99.90
38090;DHT22;23904;52.322;10.232;2023-07-24T01:14:32;19.20;99.90
38090;DHT22;23904;52.322;10.232;2023-07-24T01:17:24;19.10;99.90
38090;DHT22;23904;52.322;10.232;2023-07-24T01:19:55;19.10;99.90
38090;DHT22;23904;52.322;10.232;2023-07-24T01:27:57;19.10;99.90
38090;DHT22;23904;52.322;10.232;2023-07-24T01:30:23;19.10;99.90
38090;DHT22;23904;52.322;10.232;2023-07-24T01:32:49;19.10;99.90
38090;DHT22;23904;52.322;10.232;2023-07-24T01:35:14;19.10;99.90
38090;DHT22;23904;52.322;10.232;2023-07-24T01:37:41;19.10;99.90
38090;DHT22;23904;52.322;10.232;2023-07-24T01:40:09;19.10;99.90
38090;DHT22;23904;52.322;10.232;2023-07-24T01:42:36;19.10;99.90
38090;DHT22;23904;52.322;10.232;2023-07-24T01:45:03;19.10;99.90
38090;DHT22;23904;52.322;10.232;2023-07-24T01:47:29;19.20;99.90
38090;DHT22;23904;52.322;10.232;2023-07-24T01:49:56;19.20;99.90
38090;DHT22;23904;52.322;10.232;2023-07-24T01:52:22;19.20;99.90
38090;DHT22;23904;52.322;10.232;2023-07-24T01:54:47;19.20;99.90
38090;DHT22;23904;52.322;10.232;2023-07-24T01:57:13;19.20;99.90
38090;DHT22;23904;52.322;10.232;2023-07-24T01:59:39;19.20;99.90
38090;DHT22;23904;52.322;10.232;2023-07-24T02:02:04;19.20;99.90
38090;DHT22;23904;52.322;10.232;2023-07-24T02:04:30;19.20;99.90
38090;DHT22;23904;52.322;10.232;2023-07-24T02:06:56;19.20;99.90
38090;DHT22;23904;52.322;10.232;2023-07-24T02:09:21;19.30;99.90
38090;DHT22;23904;52.322;10.232;2023-07-24T02:11:47;19.30;99.90
38090;DHT22;23904;52.322;10.232;2023-07-24T02:14:14;19.30;99.90
38090;DHT22;23904;52.322;10.232;2023-07-24T02:16:40;19.30;99.90
38090;DHT22;23904;52.322;10.232;2023-07-24T02:19:06;19.30;99.90
38090;DHT22;23904;52.322;10.232;2023-07-24T02:21:32;19.30;99.90
38090;DHT22;23904;52.322;10.232;2023-07-24T02:23:57;19.30;99.90
38090;DHT22;23904;52.322;10.232;2023-07-24T02:26:23;19.30;99.90
38090;DHT22;23904;52.322;10.232;2023-07-24T02:28:49;19.30;99.90
38090;DHT22;23904;52.322;10.232;2023-07-24T02:31:14;19.30;99.90
38090;DHT22;23904;52.322;10.232;2023-07-24T02:33:40;19.30;99.90
38090;DHT22;23904;52.322;10.232;2023-07-24T02:36:05;19.30;99.90
38090;DHT22;23904;52.322;10.232;2023-07-24T02:38:31;19.30;99.90
38090;DHT22;23904;52.322;10.232;2023-07-24T02:40:57;19.40;99.90
38090;DHT22;23904;52.322;10.232;2023-07-24T02:43:22;19.40;99.90
38090;DHT22;23904;52.322;10.232;2023-07-24T02:45:48;19.30;99.90
38090;DHT22;23904;52.322;10.232;2023-07-24T02:48:14;19.30;99.90
38090;DHT22;23904;52.322;10.232;2023-07-24T02:50:39;19.30;99.90
38090;DHT22;23904;52.322;10.232;2023-07-24T02:53:05;19.30;99.90
38090;DHT22;23904;52.322;10.232;2023-07-24T02:55:31;19.30;99.90
38090;DHT22;23904;52.322;10.232;2023-07-24T02:57:56;19.30;99.90
38090;DHT22;23904;52.322;10.232;2023-07-24T03:00:22;19.30;99.90
38090;DHT22;23904;52.322;10.232;2023-07-24T03:02:47;19.20;99.90
38090;DHT22;23904;52.322;10.232;2023-07-24T03:05:13;19.20;99.90
38090;DHT22;23904;52.322;10.232;2023-07-24T03:07:39;19.20;99.90
38090;DHT22;23904;52.322;10.232;2023-07-24T03:10:04;19.30;99.90
38090;DHT22;23904;52.322;10.232;2023-07-24T03:12:30;19.30;99.90
38090;DHT22;23904;52.322;10.232;2023-07-24T03:14:56;19.20;99.90
38090;DHT22;23904;52.322;10.232;2023-07-24T03:17:22;19.20;99.90
38090;DHT22;23904;52.322;10.232;2023-07-24T03:19:48;19.20;99.90
38090;DHT22;23904;52.322;10.232;2023-07-24T03:22:14;19.10;99.90
38090;DHT22;23904;52.322;10.232;2023-07-24T03:24:40;19.00;99.90
38090;DHT22;23904;52.322;10.232;2023-07-24T03:27:05;19.00;99.90
38090;DHT22;23904;52.322;10.232;2023-07-24T03:29:31;19.00;99.90
38090;DHT22;23904;52.322;10.232;2023-07-24T03:31:57;19.00;99.90
38090;DHT22;23904;52.322;10.232;2023-07-24T03:34:22;18.90;99.90
38090;DHT22;23904;52.322;10.232;2023-07-24T03:36:48;18.90;99.90
38090;DHT22;23904;52.322;10.232;2023-07-24T03:39:14;18.90;99.90
38090;DHT22;23904;52.322;10.232;2023-07-24T03:41:41;18.90;99.90
38090;DHT22;23904;52.322;10.232;2023-07-24T03:44:07;18.90;99.90
38090;DHT22;23904;52.322;10.232;2023-07-24T03:46:33;18.90;99.90
38090;DHT22;23904;52.322;10.232;2023-07-24T03:48:58;18.90;99.90
38090;DHT22;23904;52.322;10.232;2023-07-24T03:51:24;18.80;99.90
38090;DHT22;23904;52.322;10.232;2023-07-24T03:53:50;18.80;99.90
38090;DHT22;23904;52.322;10.232;2023-07-24T03:56:15;18.80;99.90
38090;DHT22;23904;52.322;10.232;2023-07-24T03:58:41;18.80;99.90
38090;DHT22;23904;52.322;10.232;2023-07-24T04:01:07;18.80;99.90
38090;DHT22;23904;52.322;10.232;2023-07-24T04:03:34;18.80;99.90
38090;DHT22;23904;52.322;10.232;2023-07-24T04:05:59;18.80;99.90
38090;DHT22;23904;52.322;10.232;2023-07-24T04:08:25;18.80;99.90
38090;DHT22;23904;52.322;10.232;2023-07-24T04:10:51;18.80;99.90
38090;DHT22;23904;52.322;10.232;2023-07-24T04:13:16;18.70;99.90
38090;DHT22;23904;52.322;10.232;2023-07-24T04:15:42;18.70;99.90
38090;DHT22;23904;52.322;10.232;2023-07-24T04:18:09;18.70;99.90
38090;DHT22;23904;52.322;10.232;2023-07-24T04:20:35;18.70;99.90
38090;DHT22;23904;52.322;10.232;2023-07-24T04:23:01;18.70;99.90
38090;DHT22;23904;52.322;10.232;2023-07-24T04:25:26;18.70;99.90
38090;DHT22;23904;52.322;10.232;2023-07-24T04:27:52;18.60;99.90
38090;DHT22;23904;52.322;10.232;2023-07-24T04:30:17;18.70;99.90
38090;DHT22;23904;52.322;10.232;2023-07-24T04:32:43;18.70;99.90
38090;DHT22;23904;52.322;10.232;2023-07-24T04:35:09;18.60;99.90
38090;DHT22;23904;52.322;10.232;2023-07-24T04:37:34;18.70;99.90
38090;DHT22;23904;52.322;10.232;2023-07-24T04:40:00;18.70;99.90
38090;DHT22;23904;52.322;10.232;2023-07-24T04:42:26;18.80;99.90
38090;DHT22;23904;52.322;10.232;2023-07-24T04:44:51;18.80;99.90
38090;DHT22;23904;52.322;10.232;2023-07-24T04:47:17;18.70;99.90
38090;DHT22;23904;52.322;10.232;2023-07-24T04:49:43;18.70;99.90
38090;DHT22;23904;52.322;10.232;2023-07-24T04:52:08;18.70;99.90
38090;DHT22;23904;52.322;10.232;2023-07-24T04:54:34;18.70;99.90
38090;DHT22;23904;52.322;10.232;2023-07-24T04:56:59;18.70;99.90
38090;DHT22;23904;52.322;10.232;2023-07-24T04:59:25;18.70;99.90
38090;DHT22;23904;52.322;10.232;2023-07-24T05:01:50;18.80;99.90
38090;DHT22;23904;52.322;10.232;2023-07-24T05:04:16;18.80;99.90
38090;DHT22;23904;52.322;10.232;2023-07-24T05:06:42;18.80;99.90
38090;DHT22;23904;52.322;10.232;2023-07-24T05:09:07;18.80;99.90
38090;DHT22;23904;52.322;10.232;2023-07-24T05:11:33;18.90;99.90
38090;DHT22;23904;52.322;10.232;2023-07-24T05:13:58;19.00;99.90
38090;DHT22;23904;52.322;10.232;2023-07-24T05:16:24;19.10;99.90
38090;DHT22;23904;52.322;10.232;2023-07-24T05:18:50;19.10;99.90
38090;DHT22;23904;52.322;10.232;2023-07-24T05:21:15;19.10;99.90
38090;DHT22;23904;52.322;10.232;2023-07-24T05:23:41;19.20;99.90
38090;DHT22;23904;52.322;10.232;2023-07-24T05:26:06;19.20;99.90
38090;DHT22;23904;52.322;10.232;2023-07-24T05:28:32;19.20;99.90
38090;DHT22;23904;52.322;10.232;2023-07-24T05:31:02;19.30;99.90
38090;DHT22;23904;52.322;10.232;2023-07-24T05:33:28;19.50;99.90
38090;DHT22;23904;52.322;10.232;2023-07-24T05:36:00;19.60;99.90
38090;DHT22;23904;52.322;10.232;2023-07-24T05:38:29;19.60;99.90
38090;DHT22;23904;52.322;10.232;2023-07-24T05:41:02;19.70;99.90
38090;DHT22;23904;52.322;10.232;2023-07-24T05:43:29;19.80;99.90
38090;DHT22;23904;52.322;10.232;2023-07-24T05:45:56;19.80;99.90
38090;DHT22;23904;52.322;10.232;2023-07-24T05:48:22;19.90;99.90
38090;DHT22;23904;52.322;10.232;2023-07-24T05:50:49;20.00;99.90
38090;DHT22;23904;52.322;10.232;2023-07-24T05:53:15;20.10;99.90
38090;DHT22;23904;52.322;10.232;2023-07-24T05:55:41;20.20;99.90
38090;DHT22;23904;52.322;10.232;2023-07-24T05:58:08;20.20;99.90
38090;DHT22;23904;52.322;10.232;2023-07-24T06:00:34;20.30;99.90
38090;DHT22;23904;52.322;10.232;2023-07-24T06:03:00;20.30;99.90
38090;DHT22;23904;52.322;10.232;2023-07-24T06:05:26;20.30;99.90
38090;DHT22;23904;52.322;10.232;2023-07-24T06:07:51;20.30;99.90
38090;DHT22;23904;52.322;10.232;2023-07-24T06:10:17;20.20;99.90
38090;DHT22;23904;52.322;10.232;2023-07-24T06:12:43;20.10;99.90
38090;DHT22;23904;52.322;10.232;2023-07-24T06:15:08;20.10;99.90
38090;DHT22;23904;52.322;10.232;2023-07-24T06:17:34;20.00;99.90
38090;DHT22;23904;52.322;10.232;2023-07-24T06:20:00;20.00;99.90
38090;DHT22;23904;52.322;10.232;2023-07-24T06:22:25;20.00;99.90
38090;DHT22;23904;52.322;10.232;2023-07-24T06:24:51;19.90;99.90
38090;DHT22;23904;52.322;10.232;2023-07-24T06:27:16;19.90;99.90
38090;DHT22;23904;52.322;10.232;2023-07-24T06:29:42;19.80;99.90
38090;DHT22;23904;52.322;10.232;2023-07-24T06:32:07;19.90;99.90
38090;DHT22;23904;52.322;10.232;2023-07-24T06:34:34;19.90;99.90
38090;DHT22;23904;52.322;10.232;2023-07-24T06:37:00;20.10;99.90
38090;DHT22;23904;52.322;10.232;2023-07-24T06:39:26;20.20;99.90
38090;DHT22;23904;52.322;10.232;2023-07-24T06:41:52;20.20;99.90
38090;DHT22;23904;52.322;10.232;2023-07-24T06:44:18;20.20;99.90
38090;DHT22;23904;52.322;10.232;2023-07-24T06:46:44;20.30;99.90
38090;DHT22;23904;52.322;10.232;2023-07-24T06:49:09;20.40;99.90
38090;DHT22;23904;52.322;10.232;2023-07-24T06:51:36;20.50;99.90
38090;DHT22;23904;52.322;10.232;2023-07-24T06:54:04;20.50;99.90
38090;DHT22;23904;52.322;10.232;2023-07-24T06:56:30;20.50;99.90
38090;DHT22;23904;52.322;10.232;2023-07-24T06:58:56;20.60;99.90
38090;DHT22;23904;52.322;10.232;2023-07-24T07:01:21;20.60;99.90
38090;DHT22;23904;52.322;10.232;2023-07-24T07:03:47;20.60;99.90
38090;DHT22;23904;52.322;10.232;2023-07-24T07:06:13;20.70;99.90
38090;DHT22;23904;52.322;10.232;2023-07-24T07:08:38;20.60;99.90
38090;DHT22;23904;52.322;10.232;2023-07-24T07:11:04;20.60;99.90
38090;DHT22;23904;52.322;10.232;2023-07-24T07:13:29;20.70;99.90
38090;DHT22;23904;52.322;10.232;2023-07-24T07:15:55;20.70;99.90
38090;DHT22;23904;52.322;10.232;2023-07-24T07:18:21;20.70;99.90
38090;DHT22;23904;52.322;10.232;2023-07-24T07:20:48;20.70;99.90
38090;DHT22;23904;52.322;10.232;2023-07-24T07:23:14;20.60;99.90
38090;DHT22;23904;52.322;10.232;2023-07-24T07:25:40;20.80;99.90
38090;DHT22;23904;52.322;10.232;2023-07-24T07:28:08;20.80;99.90
38090;DHT22;23904;52.322;10.232;2023-07-24T07:30:34;21.00;99.90
38090;DHT22;23904;52.322;10.232;2023-07-24T07:33:00;21.00;99.90
38090;DHT22;23904;52.322;10.232;2023-07-24T07:35:26;21.30;99.90
38090;DHT22;23904;52.322;10.232;2023-07-24T07:37:52;21.40;99.90
38090;DHT22;23904;52.322;10.232;2023-07-24T07:40:18;21.40;99.90
38090;DHT22;23904;52.322;10.232;2023-07-24T07:42:43;21.60;99.90
38090;DHT22;23904;52.322;10.232;2023-07-24T07:45:10;21.70;99.90
38090;DHT22;23904;52.322;10.232;2023-07-24T07:47:36;21.80;99.90
38090;DHT22;23904;52.322;10.232;2023-07-24T07:50:02;22.00;99.90
38090;DHT22;23904;52.322;10.232;2023-07-24T07:52:28;22.10;99.90
38090;DHT22;23904;52.322;10.232;2023-07-24T07:54:54;22.20;99.90
38090;DHT22;23904;52.322;10.232;2023-07-24T07:57:19;22.40;99.90
38090;DHT22;23904;52.322;10.232;2023-07-24T07:59:45;22.60;99.90
38090;DHT22;23904;52.322;10.232;2023-07-24T08:02:10;22.60;99.90
38090;DHT22;23904;52.322;10.232;2023-07-24T08:04:36;22.80;99.90
38090;DHT22;23904;52.322;10.232;2023-07-24T08:07:01;22.90;99.90
38090;DHT22;23904;52.322;10.232;2023-07-24T08:09:28;23.00;99.90
38090;DHT22;23904;52.322;10.232;2023-07-24T08:11:53;23.10;99.90
38090;DHT22;23904;52.322;10.232;2023-07-24T08:14:19;23.20;99.90
38090;DHT22;23904;52.322;10.232;2023-07-24T08:16:48;23.40;99.90
38090;DHT22;23904;52.322;10.232;2023-07-24T08:19:13;23.50;99.90
38090;DHT22;23904;52.322;10.232;2023-07-24T08:21:39;23.60;99.90
38090;DHT22;23904;52.322;10.232;2023-07-24T08:24:05;23.70;99.90
38090;DHT22;23904;52.322;10.232;2023-07-24T08:26:31;23.80;99.90
38090;DHT22;23904;52.322;10.232;2023-07-24T08:28:57;23.70;99.90
38090;DHT22;23904;52.322;10.232;2023-07-24T08:31:23;23.80;99.90
38090;DHT22;23904;52.322;10.232;2023-07-24T08:33:49;23.80;99.90
38090;DHT22;23904;52.322;10.232;2023-07-24T08:36:14;23.50;99.90
38090;DHT22;23904;52.322;10.232;2023-07-24T08:38:40;23.10;99.90
38090;DHT22;23904;52.322;10.232;2023-07-24T08:41:12;22.80;99.90
38090;DHT22;23904;52.322;10.232;2023-07-24T08:43:43;22.40;99.90
38090;DHT22;23904;52.322;10.232;2023-07-24T08:46:09;21.90;99.90
38090;DHT22;23904;52.322;10.232;2023-07-24T08:48:40;21.40;99.90
38090;DHT22;23904;52.322;10.232;2023-07-24T08:51:08;21.10;99.90
38090;DHT22;23904;52.322;10.232;2023-07-24T08:53:36;20.70;99.90
38090;DHT22;23904;52.322;10.232;2023-07-24T08:56:04;20.30;99.90
38090;DHT22;23904;52.322;10.232;2023-07-24T08:58:31;20.00;99.90
38090;DHT22;23904;52.322;10.232;2023-07-24T09:00:57;19.80;99.90
38090;DHT22;23904;52.322;10.232;2023-07-24T09:03:23;19.70;99.90
38090;DHT22;23904;52.322;10.232;2023-07-24T09:05:49;19.60;99.90
38090;DHT22;23904;52.322;10.232;2023-07-24T09:08:15;19.70;99.90
38090;DHT22;23904;52.322;10.232;2023-07-24T09:10:41;19.80;99.90
38090;DHT22;23904;52.322;10.232;2023-07-24T09:13:07;20.10;99.90
38090;DHT22;23904;52.322;10.232;2023-07-24T09:15:43;20.30;99.90
38090;DHT22;23904;52.322;10.232;2023-07-24T09:18:09;20.70;99.90
38090;DHT22;23904;52.322;10.232;2023-07-24T09:20:43;21.00;99.90
38090;DHT22;23904;52.322;10.232;2023-07-24T09:23:10;21.50;99.90
38090;DHT22;23904;52.322;10.232;2023-07-24T09:25:38;21.70;99.90
38090;DHT22;23904;52.322;10.232;2023-07-24T09:28:14;22.00;99.90
38090;DHT22;23904;52.322;10.232;2023-07-24T09:30:41;22.20;99.90
38090;DHT22;23904;52.322;10.232;2023-07-24T09:33:09;22.40;99.90
38090;DHT22;23904;52.322;10.232;2023-07-24T09:35:35;22.80;99.90
38090;DHT22;23904;52.322;10.232;2023-07-24T09:38:11;23.20;99.90
38090;DHT22;23904;52.322;10.232;2023-07-24T09:40:44;23.70;99.90
38090;DHT22;23904;52.322;10.232;2023-07-24T09:43:21;23.50;99.90
38090;DHT22;23904;52.322;10.232;2023-07-24T09:45:48;23.90;99.90
38090;DHT22;23904;52.322;10.232;2023-07-24T09:48:16;24.20;99.90
38090;DHT22;23904;52.322;10.232;2023-07-24T09:50:45;24.30;99.90
38090;DHT22;23904;52.322;10.232;2023-07-24T09:53:58;24.40;99.90
38090;DHT22;23904;52.322;10.232;2023-07-24T09:56:11;24.50;99.90
38090;DHT22;23904;52.322;10.232;2023-07-24T09:58:38;25.00;99.90
38090;DHT22;23904;52.322;10.232;2023-07-24T10:01:07;25.70;99.90
38090;DHT22;23904;52.322;10.232;2023-07-24T10:03:37;25.70;99.90
38090;DHT22;23904;52.322;10.232;2023-07-24T10:06:05;26.20;99.90
38090;DHT22;23904;52.322;10.232;2023-07-24T10:08:31;26.30;99.90
38090;DHT22;23904;52.322;10.232;2023-07-24T10:10:58;26.70;99.90
38090;DHT22;23904;52.322;10.232;2023-07-24T10:13:26;27.30;99.90
38090;DHT22;23904;52.322;10.232;2023-07-24T10:15:52;27.20;99.90
38090;DHT22;23904;52.322;10.232;2023-07-24T10:18:24;26.90;99.90
38090;DHT22;23904;52.322;10.232;2023-07-24T10:21:00;27.30;99.90
38090;DHT22;23904;52.322;10.232;2023-07-24T10:23:27;28.00;99.90
38090;DHT22;23904;52.322;10.232;2023-07-24T10:25:53;28.10;99.60
38090;DHT22;23904;52.322;10.232;2023-07-24T10:28:19;27.10;99.60
38090;DHT22;23904;52.322;10.232;2023-07-24T10:30:45;27.00;99.90
38090;DHT22;23904;52.322;10.232;2023-07-24T10:33:20;26.70;99.90
38090;DHT22;23904;52.322;10.232;2023-07-24T10:36:04;26.60;99.90
38090;DHT22;23904;52.322;10.232;2023-07-24T10:38:36;26.20;99.90
38090;DHT22;23904;52.322;10.232;2023-07-24T10:41:03;25.20;99.90
38090;DHT22;23904;52.322;10.232;2023-07-24T10:43:40;24.80;99.90
38090;DHT22;23904;52.322;10.232;2023-07-24T10:46:06;24.40;99.90
38090;DHT22;23904;52.322;10.232;2023-07-24T10:48:32;25.30;99.90
38090;DHT22;23904;52.322;10.232;2023-07-24T10:50:58;26.50;99.90
38090;DHT22;23904;52.322;10.232;2023-07-24T10:53:23;28.10;99.80
38090;DHT22;23904;52.322;10.232;2023-07-24T10:55:50;29.10;98.60
38090;DHT22;23904;52.322;10.232;2023-07-24T10:58:16;30.20;96.50
38090;DHT22;23904;52.322;10.232;2023-07-24T11:00:43;30.70;93.60
38090;DHT22;23904;52.322;10.232;2023-07-24T11:03:12;31.00;92.90
38090;DHT22;23904;52.322;10.232;2023-07-24T11:05:43;29.60;94.30
38090;DHT22;23904;52.322;10.232;2023-07-24T11:08:16;29.30;94.50
38090;DHT22;23904;52.322;10.232;2023-07-24T11:10:47;29.00;95.60
38090;DHT22;23904;52.322;10.232;2023-07-24T11:13:18;29.60;94.30
38090;DHT22;23904;52.322;10.232;2023-07-24T11:15:45;30.50;94.10
38090;DHT22;23904;52.322;10.232;2023-07-24T11:18:11;30.00;92.80
38090;DHT22;23904;52.322;10.232;2023-07-24T11:20:46;29.60;94.00
38090;DHT22;23904;52.322;10.232;2023-07-24T11:23:13;29.90;92.70
38090;DHT22;23904;52.322;10.232;2023-07-24T11:25:39;30.40;91.70
38090;DHT22;23904;52.322;10.232;2023-07-24T11:28:06;31.00;91.00
38090;DHT22;23904;52.322;10.232;2023-07-24T11:30:33;31.00;90.50
38090;DHT22;23904;52.322;10.232;2023-07-24T11:33:00;31.70;90.60
38090;DHT22;23904;52.322;10.232;2023-07-24T11:35:27;31.90;89.50
38090;DHT22;23904;52.322;10.232;2023-07-24T11:37:53;31.20;88.30
38090;DHT22;23904;52.322;10.232;2023-07-24T11:40:19;30.30;91.40
38090;DHT22;23904;52.322;10.232;2023-07-24T11:42:47;30.60;91.80
38090;DHT22;23904;52.322;10.232;2023-07-24T11:45:14;30.60;91.60
38090;DHT22;23904;52.322;10.232;2023-07-24T11:47:46;30.70;90.70
38090;DHT22;23904;52.322;10.232;2023-07-24T11:50:14;30.20;90.60
38090;DHT22;23904;52.322;10.232;2023-07-24T11:52:45;29.10;91.50
38090;DHT22;23904;52.322;10.232;2023-07-24T11:55:16;28.80;92.80
38090;DHT22;23904;52.322;10.232;2023-07-24T11:57:43;29.50;93.20
38090;DHT22;23904;52.322;10.232;2023-07-24T12:00:22;29.70;91.70
38090;DHT22;23904;52.322;10.232;2023-07-24T12:02:48;29.60;91.60
38090;DHT22;23904;52.322;10.232;2023-07-24T12:05:14;29.60;91.90
38090;DHT22;23904;52.322;10.232;2023-07-24T12:07:39;28.80;92.70
38090;DHT22;23904;52.322;10.232;2023-07-24T12:10:09;28.80;93.00
38090;DHT22;23904;52.322;10.232;2023-07-24T12:12:52;28.60;93.30
38090;DHT22;23904;52.322;10.232;2023-07-24T12:15:18;28.80;93.90
38090;DHT22;23904;52.322;10.232;2023-07-24T12:17:44;28.90;93.70
38090;DHT22;23904;52.322;10.232;2023-07-24T12:20:09;29.30;92.70
38090;DHT22;23904;52.322;10.232;2023-07-24T12:22:36;28.90;92.00
38090;DHT22;23904;52.322;10.232;2023-07-24T12:25:03;28.30;92.70
38090;DHT22;23904;52.322;10.232;2023-07-24T12:27:30;28.40;93.00
38090;DHT22;23904;52.322;10.232;2023-07-24T12:29:56;28.10;92.20
38090;DHT22;23904;52.322;10.232;2023-07-24T12:32:22;28.10;93.00
38090;DHT22;23904;52.322;10.232;2023-07-24T12:34:49;28.80;91.30
38090;DHT22;23904;52.322;10.232;2023-07-24T12:37:16;29.30;89.50
38090;DHT22;23904;52.322;10.232;2023-07-24T12:39:44;30.00;88.80
38090;DHT22;23904;52.322;10.232;2023-07-24T12:42:10;29.70;89.60
38090;DHT22;23904;52.322;10.232;2023-07-24T12:44:36;29.20;90.40
38090;DHT22;23904;52.322;10.232;2023-07-24T12:47:03;28.60;91.60
38090;DHT22;23904;52.322;10.232;2023-07-24T12:49:29;27.70;93.70
38090;DHT22;23904;52.322;10.232;2023-07-24T12:51:55;26.80;95.70
38090;DHT22;23904;52.322;10.232;2023-07-24T12:54:20;26.40;96.40
38090;DHT22;23904;52.322;10.232;2023-07-24T12:56:47;26.20;97.20
38090;DHT22;23904;52.322;10.232;2023-07-24T12:59:13;25.80;98.10
38090;DHT22;23904;52.322;10.232;2023-07-24T13:01:39;25.60;98.30
38090;DHT22;23904;52.322;10.232;2023-07-24T13:04:04;25.40;98.80
38090;DHT22;23904;52.322;10.232;2023-07-24T13:06:30;25.00;99.10
38090;DHT22;23904;52.322;10.232;2023-07-24T13:08:56;24.70;99.70
38090;DHT22;23904;52.322;10.232;2023-07-24T13:11:21;24.40;99.90
38090;DHT22;23904;52.322;10.232;2023-07-24T13:13:47;24.00;99.90
38090;DHT22;23904;52.322;10.232;2023-07-24T13:16:13;23.70;99.90
38090;DHT22;23904;52.322;10.232;2023-07-24T13:18:38;23.50;99.90
38090;DHT22;23904;52.322;10.232;2023-07-24T13:21:04;23.40;99.90
38090;DHT22;23904;52.322;10.232;2023-07-24T13:23:32;23.50;99.90
38090;DHT22;23904;52.322;10.232;2023-07-24T13:25:58;23.60;99.90
38090;DHT22;23904;52.322;10.232;2023-07-24T13:28:23;23.70;99.90
38090;DHT22;23904;52.322;10.232;2023-07-24T13:30:49;23.60;99.90
38090;DHT22;23904;52.322;10.232;2023-07-24T13:33:14;24.00;99.90
38090;DHT22;23904;52.322;10.232;2023-07-24T13:35:41;24.30;99.90
38090;DHT22;23904;52.322;10.232;2023-07-24T13:38:06;24.40;99.90
38090;DHT22;23904;52.322;10.232;2023-07-24T13:40:34;24.20;99.90
38090;DHT22;23904;52.322;10.232;2023-07-24T13:43:00;24.60;99.90
38090;DHT22;23904;52.322;10.232;2023-07-24T13:45:26;24.80;99.70
38090;DHT22;23904;52.322;10.232;2023-07-24T13:47:52;25.00;99.40
38090;DHT22;23904;52.322;10.232;2023-07-24T13:50:17;25.20;98.90
38090;DHT22;23904;52.322;10.232;2023-07-24T13:52:43;25.00;98.60
38090;DHT22;23904;52.322;10.232;2023-07-24T13:55:09;24.80;99.20
38090;DHT22;23904;52.322;10.232;2023-07-24T13:57:34;24.60;98.70
38090;DHT22;23904;52.322;10.232;2023-07-24T14:00:00;24.70;98.60
38090;DHT22;23904;52.322;10.232;2023-07-24T14:02:25;24.60;99.40
38090;DHT22;23904;52.322;10.232;2023-07-24T14:04:52;24.30;99.90
38090;DHT22;23904;52.322;10.232;2023-07-24T14:07:18;23.90;99.90
38090;DHT22;23904;52.322;10.232;2023-07-24T14:09:44;23.70;99.90
38090;DHT22;23904;52.322;10.232;2023-07-24T14:12:09;23.40;99.90
38090;DHT22;23904;52.322;10.232;2023-07-24T14:14:35;23.30;99.90
38090;DHT22;23904;52.322;10.232;2023-07-24T14:17:00;23.40;99.90
38090;DHT22;23904;52.322;10.232;2023-07-24T14:19:26;23.40;99.90
38090;DHT22;23904;52.322;10.232;2023-07-24T14:21:52;23.30;99.90
38090;DHT22;23904;52.322;10.232;2023-07-24T14:24:17;23.20;99.90
38090;DHT22;23904;52.322;10.232;2023-07-24T14:26:43;23.10;99.90
38090;DHT22;23904;52.322;10.232;2023-07-24T14:29:10;23.10;99.90
38090;DHT22;23904;52.322;10.232;2023-07-24T14:31:37;23.00;99.90
38090;DHT22;23904;52.322;10.232;2023-07-24T14:34:03;23.00;99.90
38090;DHT22;23904;52.322;10.232;2023-07-24T14:36:29;23.00;99.90
38090;DHT22;23904;52.322;10.232;2023-07-24T14:38:59;22.80;99.90
38090;DHT22;23904;52.322;10.232;2023-07-24T14:41:26;22.70;99.90
38090;DHT22;23904;52.322;10.232;2023-07-24T14:43:52;22.50;99.90
38090;DHT22;23904;52.322;10.232;2023-07-24T14:46:18;22.50;99.90
38090;DHT22;23904;52.322;10.232;2023-07-24T14:48:43;22.40;99.90
38090;DHT22;23904;52.322;10.232;2023-07-24T14:51:09;21.40;99.90
38090;DHT22;23904;52.322;10.232;2023-07-24T14:53:34;19.70;99.90
38090;DHT22;23904;52.322;10.232;2023-07-24T14:56:02;19.10;99.90
38090;DHT22;23904;52.322;10.232;2023-07-24T14:58:28;18.70;99.90
38090;DHT22;23904;52.322;10.232;2023-07-24T15:00:54;18.40;99.90
38090;DHT22;23904;52.322;10.232;2023-07-24T15:03:19;18.20;99.90
38090;DHT22;23904;52.322;10.232;2023-07-24T15:05:45;18.10;99.90
38090;DHT22;23904;52.322;10.232;2023-07-24T15:08:10;18.20;99.90
38090;DHT22;23904;52.322;10.232;2023-07-24T15:10:36;18.20;99.90
38090;DHT22;23904;52.322;10.232;2023-07-24T15:13:02;18.20;99.90
38090;DHT22;23904;52.322;10.232;2023-07-24T15:15:27;18.30;99.90
38090;DHT22;23904;52.322;10.232;2023-07-24T15:17:53;18.30;99.90